createdAt,value
2022-11-18T00:01:19.371Z,12.20
2022-11-18T00:03:48.053Z,12.20
2022-11-18T00:06:21.190Z,12.20
2022-11-18T00:08:48.736Z,12.20
2022-11-18T00:11:37.939Z,12.30
2022-11-18T00:14:21.866Z,12.20
2022-11-18T00:17:07.334Z,12.20
2022-11-18T00:19:39.795Z,12.20
2022-11-18T00:22:08.165Z,12.20
2022-11-18T00:24:34.894Z,12.20
2022-11-18T00:27:01.672Z,12.20
2022-11-18T00:29:28.932Z,12.20
2022-11-18T00:31:57.101Z,12.10
2022-11-18T00:34:24.712Z,12.20
2022-11-18T00:36:51.903Z,12.20
2022-11-18T00:39:20.880Z,12.20
2022-11-18T00:42:07.082Z,12.20
2022-11-18T00:44:34.309Z,12.30
2022-11-18T00:47:01.021Z,12.30
2022-11-18T00:49:27.848Z,12.30
2022-11-18T00:51:54.550Z,12.30
2022-11-18T00:54:22.221Z,12.30
2022-11-18T00:56:49.265Z,12.30
2022-11-18T00:59:16.915Z,12.30
2022-11-18T01:01:44.684Z,12.30
2022-11-18T01:04:11.557Z,12.30
2022-11-18T01:06:38.307Z,12.30
2022-11-18T01:09:04.971Z,12.30
2022-11-18T01:11:50.417Z,12.30
2022-11-18T01:14:17.255Z,12.30
2022-11-18T01:16:44.228Z,12.20
2022-11-18T01:19:10.924Z,12.20
2022-11-18T01:21:37.717Z,12.30
2022-11-18T01:24:04.764Z,12.20
2022-11-18T01:26:31.602Z,12.20
2022-11-18T01:28:58.286Z,12.20
2022-11-18T01:31:25.011Z,12.10
2022-11-18T01:33:51.816Z,12.10
2022-11-18T01:36:20.989Z,12.10
2022-11-18T01:38:48.630Z,12.10
2022-11-18T01:41:16.417Z,12.10
2022-11-18T01:44:04.203Z,12.00
2022-11-18T01:46:33.634Z,12.00
2022-11-18T01:49:05.539Z,11.90
2022-11-18T01:51:45.017Z,11.90
2022-11-18T01:54:20.514Z,11.90
2022-11-18T01:56:54.130Z,11.90
2022-11-18T01:59:31.167Z,11.90
2022-11-18T02:02:00.506Z,11.90
2022-11-18T02:04:28.575Z,11.90
2022-11-18T02:06:56.647Z,11.90
2022-11-18T02:09:23.399Z,11.90
2022-11-18T02:11:51.060Z,11.90
2022-11-18T02:14:21.510Z,11.90
2022-11-18T02:17:16.374Z,11.90
2022-11-18T02:20:14.746Z,11.90
2022-11-18T02:23:12.820Z,12.00
2022-11-18T02:25:42.603Z,12.00
2022-11-18T02:28:27.311Z,11.90
2022-11-18T02:31:00.344Z,12.00
2022-11-18T02:34:00.874Z,12.00
2022-11-18T02:36:27.594Z,12.00
2022-11-18T02:38:59.321Z,12.00
2022-11-18T02:41:30.311Z,12.00
2022-11-18T02:44:02.250Z,12.00
2022-11-18T02:46:38.806Z,12.00
2022-11-18T02:49:16.257Z,12.00
2022-11-18T02:51:46.093Z,12.00
2022-11-18T02:54:15.696Z,12.00
2022-11-18T02:56:43.779Z,12.00
2022-11-18T02:59:10.520Z,12.00
2022-11-18T03:01:38.004Z,12.00
2022-11-18T03:04:04.870Z,12.10
2022-11-18T03:06:38.344Z,12.10
2022-11-18T03:09:20.735Z,12.10
2022-11-18T03:12:07.049Z,12.10
2022-11-18T03:14:51.909Z,12.20
2022-11-18T03:17:57.715Z,12.20
2022-11-18T03:20:49.939Z,12.20
2022-11-18T03:23:41.594Z,12.10
2022-11-18T03:26:26.407Z,12.20
2022-11-18T03:28:56.698Z,12.20
2022-11-18T03:31:45.633Z,12.10
2022-11-18T03:34:27.063Z,12.10
2022-11-18T03:37:00.840Z,12.20
2022-11-18T03:39:30.725Z,12.10
2022-11-18T03:42:39.061Z,12.20
2022-11-18T03:45:12.571Z,12.20
2022-11-18T03:47:47.243Z,12.20
2022-11-18T03:50:22.035Z,12.20
2022-11-18T03:52:50.941Z,12.20
2022-11-18T03:55:23.683Z,12.20
2022-11-18T03:57:59.771Z,12.20
2022-11-18T04:00:30.022Z,12.20
2022-11-18T04:02:58.729Z,12.30
2022-11-18T04:05:26.564Z,12.20
2022-11-18T04:08:02.703Z,12.20
2022-11-18T04:10:42.604Z,12.30
2022-11-18T04:13:16.150Z,12.30
2022-11-18T04:15:43.297Z,12.30
2022-11-18T04:18:11.001Z,12.30
2022-11-18T04:20:37.930Z,12.30
2022-11-18T04:23:05.871Z,12.30
2022-11-18T04:25:32.902Z,12.30
2022-11-18T04:28:01.080Z,12.30
2022-11-18T04:30:27.917Z,12.40
2022-11-18T04:32:54.792Z,12.40
2022-11-18T04:35:21.669Z,12.30
2022-11-18T04:37:49.333Z,12.30
2022-11-18T04:40:16.395Z,12.30
2022-11-18T04:42:43.805Z,12.30
2022-11-18T04:45:11.499Z,12.30
2022-11-18T04:47:38.919Z,12.30
2022-11-18T04:50:06.357Z,12.30
2022-11-18T04:52:36.021Z,12.40
2022-11-18T04:55:02.758Z,12.40
2022-11-18T04:57:30.564Z,12.30
2022-11-18T04:59:57.281Z,12.40
2022-11-18T05:02:24.545Z,12.40
2022-11-18T05:04:53.056Z,12.40
2022-11-18T05:07:20.288Z,12.40
2022-11-18T05:09:47.001Z,12.40
2022-11-18T05:12:33.935Z,12.40
2022-11-18T05:15:01.286Z,12.40
2022-11-18T05:17:28.041Z,12.40
2022-11-18T05:19:54.876Z,12.50
2022-11-18T05:22:21.718Z,12.50
2022-11-18T05:24:49.167Z,12.40
2022-11-18T05:27:17.084Z,12.40
2022-11-18T05:29:43.831Z,12.40
2022-11-18T05:32:12.463Z,12.40
2022-11-18T05:34:43.110Z,12.40
2022-11-18T05:37:10.460Z,12.40
2022-11-18T05:39:37.285Z,12.40
2022-11-18T05:42:42.964Z,12.40
2022-11-18T05:45:09.853Z,12.30
2022-11-18T05:47:56.723Z,12.30
2022-11-18T05:50:23.604Z,12.30
2022-11-18T05:52:52.718Z,12.30
2022-11-18T05:55:21.051Z,12.20
2022-11-18T05:57:47.713Z,12.30
2022-11-18T06:00:16.053Z,12.30
2022-11-18T06:02:46.383Z,12.30
2022-11-18T06:05:14.059Z,12.20
2022-11-18T06:07:45.744Z,12.30
2022-11-18T06:10:18.575Z,12.30
2022-11-18T06:12:48.029Z,12.30
2022-11-18T06:15:24.578Z,12.30
2022-11-18T06:18:04.073Z,12.30
2022-11-18T06:20:32.997Z,12.30
2022-11-18T06:23:01.132Z,12.30
2022-11-18T06:25:29.305Z,12.20
2022-11-18T06:27:59.157Z,12.20
2022-11-18T06:30:25.890Z,12.20
2022-11-18T06:32:52.642Z,12.20
2022-11-18T06:35:20.072Z,12.20
2022-11-18T06:37:47.374Z,12.20
2022-11-18T06:40:14.427Z,12.20
2022-11-18T06:42:59.889Z,12.20
2022-11-18T06:45:26.968Z,12.10
2022-11-18T06:47:58.125Z,12.20
2022-11-18T06:50:24.922Z,12.10
2022-11-18T06:52:51.653Z,12.20
2022-11-18T06:55:18.427Z,12.20
2022-11-18T06:57:45.202Z,12.20
2022-11-18T07:00:12.789Z,12.20
2022-11-18T07:02:39.530Z,12.20
2022-11-18T07:05:08.036Z,12.20
2022-11-18T07:07:41.517Z,12.20
2022-11-18T07:10:08.970Z,12.20
2022-11-18T07:12:35.699Z,12.30
2022-11-18T07:15:02.656Z,12.20
2022-11-18T07:17:32.233Z,12.30
2022-11-18T07:19:59.016Z,12.30
2022-11-18T07:22:25.726Z,12.30
2022-11-18T07:24:53.477Z,12.30
2022-11-18T07:27:20.176Z,12.20
2022-11-18T07:29:48.416Z,12.30
2022-11-18T07:32:15.109Z,12.30
2022-11-18T07:34:41.920Z,12.30
2022-11-18T07:37:08.777Z,12.30
2022-11-18T07:39:35.492Z,12.30
2022-11-18T07:42:02.489Z,12.30
2022-11-18T07:44:32.236Z,12.30
2022-11-18T07:47:00.409Z,12.30
2022-11-18T07:49:27.172Z,12.30
2022-11-18T07:51:54.613Z,12.30
2022-11-18T07:54:21.352Z,12.40
2022-11-18T07:56:48.404Z,12.40
2022-11-18T07:59:15.112Z,12.40
2022-11-18T08:01:41.937Z,12.40
2022-11-18T08:04:11.047Z,12.50
2022-11-18T08:06:38.603Z,12.50
2022-11-18T08:09:06.635Z,12.50
2022-11-18T08:11:33.697Z,12.60
2022-11-18T08:14:00.705Z,12.60
2022-11-18T08:16:27.891Z,12.60
2022-11-18T08:18:54.573Z,12.60
2022-11-18T08:21:22.858Z,12.60
2022-11-18T08:23:56.305Z,12.70
2022-11-18T08:26:25.213Z,12.70
2022-11-18T08:28:52.659Z,12.70
2022-11-18T08:31:25.555Z,12.70
2022-11-18T08:34:00.528Z,12.70
2022-11-18T08:36:30.485Z,12.70
2022-11-18T08:38:58.729Z,12.80
2022-11-18T08:41:33.281Z,12.80
2022-11-18T08:44:00.940Z,12.90
2022-11-18T08:46:28.044Z,13.00
2022-11-18T08:48:54.942Z,13.10
2022-11-18T08:51:21.669Z,13.30
2022-11-18T08:53:48.473Z,13.50
2022-11-18T08:56:21.582Z,13.50
2022-11-18T08:58:48.357Z,13.60
2022-11-18T09:01:15.256Z,13.60
2022-11-18T09:03:42.381Z,13.70
2022-11-18T09:06:16.366Z,13.80
2022-11-18T09:08:44.939Z,13.90
2022-11-18T09:11:17.085Z,14.00
2022-11-18T09:16:33.752Z,14.10
2022-11-18T09:19:13.084Z,14.30
2022-11-18T09:21:47.586Z,14.40
2022-11-18T09:24:14.351Z,14.50
2022-11-18T09:26:41.210Z,14.50
2022-11-18T09:29:08.581Z,14.50
2022-11-18T09:31:35.448Z,14.60
2022-11-18T09:34:02.169Z,14.60
2022-11-18T09:36:30.003Z,14.70
2022-11-18T09:38:59.063Z,14.70
2022-11-18T09:41:46.260Z,14.70
2022-11-18T09:44:31.665Z,14.70
2022-11-18T09:47:19.342Z,14.60
2022-11-18T09:49:47.544Z,14.60
2022-11-18T09:52:25.306Z,14.70
2022-11-18T09:54:52.494Z,14.70
2022-11-18T09:57:26.022Z,14.70
2022-11-18T09:59:53.379Z,14.70
2022-11-18T10:02:48.318Z,14.80
2022-11-18T10:05:22.211Z,14.80
2022-11-18T10:08:02.822Z,14.80
2022-11-18T10:10:42.433Z,14.90
2022-11-18T10:13:21.898Z,14.90
2022-11-18T10:16:29.427Z,14.90
2022-11-18T10:19:00.983Z,14.90
2022-11-18T10:21:45.034Z,14.90
2022-11-18T10:24:52.085Z,14.90
2022-11-18T10:27:19.696Z,14.90
2022-11-18T10:29:53.173Z,14.90
2022-11-18T10:32:20.448Z,14.90
2022-11-18T10:34:50.512Z,14.90
2022-11-18T10:40:27.809Z,15.00
2022-11-18T10:42:55.580Z,15.00
2022-11-18T10:45:29.624Z,15.00
2022-11-18T10:48:14.367Z,15.00
2022-11-18T10:50:43.562Z,15.00
2022-11-18T10:53:32.255Z,15.00
2022-11-18T10:56:03.135Z,14.90
2022-11-18T10:58:31.803Z,14.90
2022-11-18T11:01:24.311Z,14.90
2022-11-18T11:04:24.773Z,14.90
2022-11-18T11:06:51.511Z,14.80
2022-11-18T11:09:30.073Z,14.80
2022-11-18T11:12:13.026Z,14.90
2022-11-18T11:15:03.287Z,14.90
2022-11-18T11:17:42.259Z,14.90
2022-11-18T11:20:17.648Z,14.90
2022-11-18T11:22:45.253Z,14.90
2022-11-18T11:28:57.284Z,15.00
2022-11-18T11:31:49.730Z,15.00
2022-11-18T11:34:25.204Z,15.00
2022-11-18T11:37:19.917Z,15.00
2022-11-18T11:39:55.178Z,15.00
2022-11-18T11:42:28.091Z,14.90
2022-11-18T11:45:16.935Z,14.90
2022-11-18T11:48:04.895Z,14.90
2022-11-18T11:51:03.377Z,15.00
2022-11-18T11:53:51.163Z,14.90
2022-11-18T11:56:29.921Z,14.90
2022-11-18T11:59:08.430Z,14.80
2022-11-18T12:01:46.740Z,14.80
2022-11-18T12:04:19.245Z,14.70
2022-11-18T12:06:49.254Z,14.70
2022-11-18T12:09:30.046Z,14.70
2022-11-18T12:12:29.132Z,14.70
2022-11-18T12:15:04.785Z,14.70
2022-11-18T12:17:40.592Z,14.70
2022-11-18T12:20:38.508Z,14.70
2022-11-18T12:23:26.712Z,14.70
2022-11-18T12:25:56.342Z,14.70
2022-11-18T12:28:43.044Z,14.70
2022-11-18T12:31:18.844Z,14.80
2022-11-18T12:33:52.159Z,14.80
2022-11-18T12:36:30.308Z,14.80
2022-11-18T12:38:57.850Z,14.90
2022-11-18T12:41:58.412Z,14.90
2022-11-18T12:44:29.570Z,14.90
2022-11-18T12:47:02.798Z,15.00
2022-11-18T12:49:29.496Z,15.00
2022-11-18T12:51:58.446Z,15.00
2022-11-18T12:54:33.399Z,15.00
2022-11-18T12:57:20.738Z,15.10
2022-11-18T12:59:47.906Z,15.10
2022-11-18T13:02:26.643Z,15.10
2022-11-18T13:05:12.950Z,15.10
2022-11-18T13:08:05.605Z,15.10
2022-11-18T13:10:35.062Z,15.10
2022-11-18T13:13:02.788Z,15.10
2022-11-18T13:15:49.467Z,15.10
2022-11-18T13:18:20.796Z,15.10
2022-11-18T13:20:58.767Z,15.10
2022-11-18T13:23:54.887Z,15.10
2022-11-18T13:26:28.523Z,15.10
2022-11-18T13:29:32.577Z,15.20
2022-11-18T13:32:17.836Z,15.20
2022-11-18T13:34:50.158Z,15.20
2022-11-18T13:37:31.338Z,15.20
2022-11-18T13:39:58.341Z,15.20
2022-11-18T13:42:27.690Z,15.20
2022-11-18T13:45:04.947Z,15.20
2022-11-18T13:47:45.935Z,15.20
2022-11-18T13:50:22.773Z,15.30
2022-11-18T13:53:00.694Z,15.30
2022-11-18T13:55:31.240Z,15.30
2022-11-18T14:01:33.362Z,15.30
2022-11-18T14:04:01.363Z,15.20
2022-11-18T14:06:39.956Z,15.20
2022-11-18T14:09:26.452Z,15.10
2022-11-18T14:12:05.544Z,15.10
2022-11-18T14:14:35.328Z,15.10
2022-11-18T14:17:13.959Z,15.00
2022-11-18T14:19:41.811Z,15.00
2022-11-18T14:22:21.616Z,14.90
2022-11-18T14:25:02.633Z,14.90
2022-11-18T14:27:42.079Z,14.90
2022-11-18T14:30:27.814Z,14.90
2022-11-18T14:33:13.679Z,14.90
2022-11-18T14:35:42.419Z,15.00
2022-11-18T14:38:40.692Z,15.00
2022-11-18T14:41:04.679Z,15.10
2022-11-18T14:43:32.520Z,15.10
2022-11-18T14:46:16.975Z,15.20
2022-11-18T14:48:44.266Z,15.20
2022-11-18T14:51:15.865Z,15.10
2022-11-18T14:53:43.934Z,15.10
2022-11-18T14:56:21.941Z,15.10
2022-11-18T14:58:48.711Z,15.00
2022-11-18T15:01:15.615Z,15.00
2022-11-18T15:03:42.510Z,15.00
2022-11-18T15:06:17.279Z,15.00
2022-11-18T15:08:46.094Z,15.00
2022-11-18T15:11:13.019Z,14.90
2022-11-18T15:13:40.348Z,14.90
2022-11-18T15:16:19.361Z,14.90
2022-11-18T15:18:49.194Z,14.80
2022-11-18T15:21:16.124Z,14.90
2022-11-18T15:23:43.771Z,14.80
2022-11-18T15:26:21.633Z,14.80
2022-11-18T15:28:50.094Z,14.80
2022-11-18T15:31:17.716Z,14.80
2022-11-18T15:33:45.733Z,14.70
2022-11-18T15:36:14.643Z,14.80
2022-11-18T15:38:42.248Z,14.70
2022-11-18T15:41:20.611Z,14.60
2022-11-18T15:43:48.532Z,14.60
2022-11-18T15:46:17.658Z,14.60
2022-11-18T15:48:44.422Z,14.60
2022-11-18T15:51:12.436Z,14.60
2022-11-18T15:53:39.791Z,14.50
2022-11-18T15:56:35.235Z,14.50
2022-11-18T15:59:04.492Z,14.60
2022-11-18T16:01:36.531Z,14.50
2022-11-18T16:04:04.984Z,14.50
2022-11-18T16:06:32.080Z,14.50
2022-11-18T16:09:00.390Z,14.40
2022-11-18T16:11:47.843Z,14.40
2022-11-18T16:14:17.420Z,14.50
2022-11-18T16:16:46.024Z,14.40
2022-11-18T16:19:15.829Z,14.40
2022-11-18T16:21:46.382Z,14.40
2022-11-18T16:24:17.066Z,14.40
2022-11-18T16:26:44.282Z,14.40
2022-11-18T16:29:12.049Z,14.40
2022-11-18T16:31:43.646Z,14.40
2022-11-18T16:34:23.610Z,14.40
2022-11-18T16:36:55.846Z,14.40
2022-11-18T16:39:25.625Z,14.40
2022-11-18T16:42:02.070Z,14.30
2022-11-18T16:44:33.896Z,14.30
2022-11-18T16:47:00.618Z,14.30
2022-11-18T16:49:28.201Z,14.30
2022-11-18T16:51:56.463Z,14.20
2022-11-18T16:54:24.547Z,14.20
2022-11-18T16:56:53.174Z,14.10
2022-11-18T16:59:24.730Z,14.10
2022-11-18T17:01:53.443Z,14.10
2022-11-18T17:04:21.558Z,14.00
2022-11-18T17:06:48.548Z,14.00
2022-11-18T17:09:18.500Z,13.90
2022-11-18T17:11:46.014Z,13.90
2022-11-18T17:14:12.929Z,13.90
2022-11-18T17:16:39.838Z,13.90
2022-11-18T17:19:11.701Z,13.80
2022-11-18T17:21:39.120Z,13.80
2022-11-18T17:24:06.874Z,13.80
2022-11-18T17:26:34.435Z,13.70
2022-11-18T17:29:01.207Z,13.70
2022-11-18T17:31:27.960Z,13.70
2022-11-18T17:33:56.028Z,13.60
2022-11-18T17:36:25.006Z,13.60
2022-11-18T17:38:54.333Z,13.60
2022-11-18T17:41:41.456Z,13.60
2022-11-18T17:44:10.563Z,13.50
2022-11-18T17:46:38.741Z,13.50
2022-11-18T17:49:10.435Z,13.40
2022-11-18T17:51:37.204Z,13.50
2022-11-18T17:54:04.050Z,13.50
2022-11-18T17:56:30.883Z,13.50
2022-11-18T17:58:57.664Z,13.50
2022-11-18T18:01:24.529Z,13.50
2022-11-18T18:03:51.400Z,13.50
2022-11-18T18:06:20.351Z,13.50
2022-11-18T18:08:47.453Z,13.50
2022-11-18T18:11:17.029Z,13.50
2022-11-18T18:14:03.206Z,13.60
2022-11-18T18:16:31.522Z,13.50
2022-11-18T18:18:59.391Z,13.60
2022-11-18T18:21:26.869Z,13.50
2022-11-18T18:23:53.683Z,13.50
2022-11-18T18:26:20.520Z,13.50
2022-11-18T18:28:47.426Z,13.50
2022-11-18T18:31:16.435Z,13.50
2022-11-18T18:33:43.749Z,13.50
2022-11-18T18:36:13.673Z,13.40
2022-11-18T18:38:41.261Z,13.40
2022-11-18T18:41:10.760Z,13.40
2022-11-18T18:43:37.896Z,13.30
2022-11-18T18:46:26.628Z,13.30
2022-11-18T18:48:53.659Z,13.30
2022-11-18T18:51:20.412Z,13.30
2022-11-18T18:53:47.142Z,13.30
2022-11-18T18:56:13.956Z,13.30
2022-11-18T18:58:40.705Z,13.30
2022-11-18T19:01:15.936Z,13.30
2022-11-18T19:03:43.824Z,13.30
2022-11-18T19:06:51.676Z,13.30
2022-11-18T19:09:14.987Z,13.30
2022-11-18T19:12:00.963Z,13.30
2022-11-18T19:14:28.662Z,13.30
2022-11-18T19:16:56.812Z,13.30
2022-11-18T19:19:44.952Z,13.20
2022-11-18T19:22:14.909Z,13.20
2022-11-18T19:24:49.778Z,13.20
2022-11-18T19:27:17.711Z,13.10
2022-11-18T19:29:44.502Z,13.10
2022-11-18T19:32:11.313Z,13.00
2022-11-18T19:34:38.092Z,13.00
2022-11-18T19:37:04.875Z,13.00
2022-11-18T19:39:31.612Z,13.00
2022-11-18T19:41:58.807Z,13.00
2022-11-18T19:44:25.638Z,13.00
2022-11-18T19:46:52.417Z,12.90
2022-11-18T19:49:19.251Z,12.90
2022-11-18T19:51:46.133Z,12.80
2022-11-18T19:54:12.836Z,12.80
2022-11-18T19:56:39.899Z,12.70
2022-11-18T19:59:06.737Z,12.70
2022-11-18T20:01:33.604Z,12.70
2022-11-18T20:04:05.788Z,12.70
2022-11-18T20:06:35.103Z,12.70
2022-11-18T20:09:02.757Z,12.80
2022-11-18T20:11:29.797Z,12.80
2022-11-18T20:13:56.743Z,12.80
2022-11-18T20:16:25.247Z,12.80
2022-11-18T20:19:10.331Z,12.80
2022-11-18T20:21:39.220Z,12.80
2022-11-18T20:24:07.923Z,12.80
2022-11-18T20:26:38.741Z,12.90
2022-11-18T20:29:07.209Z,12.90
2022-11-18T20:31:35.283Z,12.90
2022-11-18T20:34:03.365Z,12.90
2022-11-18T20:36:35.793Z,12.90
2022-11-18T20:39:08.114Z,12.90
2022-11-18T20:41:36.515Z,12.90
2022-11-18T20:44:03.995Z,12.90
2022-11-18T20:46:30.873Z,12.90
2022-11-18T20:48:57.653Z,12.90
2022-11-18T20:51:26.621Z,12.90
2022-11-18T20:53:54.827Z,12.80
2022-11-18T20:56:25.684Z,12.80
2022-11-18T20:58:52.560Z,12.70
2022-11-18T21:01:24.926Z,12.70
2022-11-18T21:03:57.570Z,12.70
2022-11-18T21:06:26.947Z,12.70
2022-11-18T21:08:58.975Z,12.60
2022-11-18T21:11:26.419Z,12.60
2022-11-18T21:14:12.093Z,12.60
2022-11-18T21:16:40.757Z,12.60
2022-11-18T21:19:07.998Z,12.60
2022-11-18T21:21:48.965Z,12.60
2022-11-18T21:24:32.982Z,12.60
2022-11-18T21:27:01.110Z,12.60
2022-11-18T21:29:30.074Z,12.60
2022-11-18T21:31:58.181Z,12.60
2022-11-18T21:34:24.961Z,12.60
2022-11-18T21:36:54.864Z,12.60
2022-11-18T21:39:23.935Z,12.60
2022-11-18T21:41:55.800Z,12.60
2022-11-18T21:44:24.864Z,12.60
2022-11-18T21:46:51.941Z,12.50
2022-11-18T21:49:19.161Z,12.60
2022-11-18T21:51:46.306Z,12.40
2022-11-18T21:54:15.835Z,12.40
2022-11-18T21:56:42.899Z,12.30
2022-11-18T21:59:09.704Z,12.30
2022-11-18T22:01:36.415Z,12.20
2022-11-18T22:04:05.030Z,12.20
2022-11-18T22:06:33.848Z,12.20
2022-11-18T22:09:01.701Z,12.20
2022-11-18T22:11:28.775Z,12.20
2022-11-18T22:13:55.842Z,12.20
2022-11-18T22:16:24.770Z,12.20
2022-11-18T22:18:58.142Z,12.20
2022-11-18T22:21:27.173Z,12.20
2022-11-18T22:23:59.211Z,12.20
2022-11-18T22:26:26.363Z,12.20
2022-11-18T22:28:54.625Z,12.20
2022-11-18T22:31:23.120Z,12.20
2022-11-18T22:33:51.408Z,12.20
2022-11-18T22:36:20.337Z,12.20
2022-11-18T22:38:48.317Z,12.20
2022-11-18T22:41:42.014Z,12.20
2022-11-18T22:44:09.949Z,12.20
2022-11-18T22:46:37.995Z,12.20
2022-11-18T22:49:06.401Z,12.20
2022-11-18T22:51:33.597Z,12.20
2022-11-18T22:54:30.819Z,12.20
2022-11-18T22:56:47.321Z,12.20
2022-11-18T22:59:14.372Z,12.20
2022-11-18T23:01:41.164Z,12.20
2022-11-18T23:04:08.142Z,12.20
2022-11-18T23:06:35.123Z,12.10
2022-11-18T23:09:02.452Z,12.20
2022-11-18T23:11:48.745Z,12.10
2022-11-18T23:14:15.519Z,12.10
2022-11-18T23:16:44.223Z,12.10
2022-11-18T23:19:13.384Z,12.00
2022-11-18T23:21:42.219Z,12.00
2022-11-18T23:24:14.399Z,12.00
2022-11-18T23:26:41.527Z,12.00
2022-11-18T23:29:09.443Z,12.00
2022-11-18T23:31:36.237Z,12.00
2022-11-18T23:34:02.984Z,12.00
2022-11-18T23:36:29.761Z,12.00
2022-11-18T23:38:56.554Z,12.00
2022-11-18T23:41:23.334Z,12.00
2022-11-18T23:43:52.091Z,12.00
2022-11-18T23:46:19.441Z,12.00
2022-11-18T23:48:47.597Z,12.00
2022-11-18T23:51:19.277Z,12.00
2022-11-18T23:53:48.304Z,12.00
2022-11-18T23:56:16.979Z,12.00
2022-11-18T23:58:46.713Z,12.00
